Bebe, Texas
Current Conditions -  °F | °C
As of 11:55 PM on Tuesday 21 Oct 2014 (Local Time) from KT20 Reporting Station
Clear Clear  
Wind Chill: 66°   Ceiling: Unl
Heat Index: 66°   Visibility: 10mi
Dew Point: 52°   Wind: 0mph
Humidity: 61%   Direction: NA
Pressure: 30.04"   Gusts: NA
Location:  29.41°N, 97.64°W
Report Text: KT20 220455Z AUTO 00000KT 10SM CLR 19/11 A3004 RMK AO2 T01900113
Loading
Personal Weather Stations






























Interactive Weather Map
Tropical Storm Tracking
New forecast layout! Learn more

10-Day Weather Forecast

Advertisements
Track Severe Weather on mobile